Norwegian Spirit — C6TQ6 — position and weather

sailwx.info

Track history (hours):
 
Tides and Currents Weather Stations Pressure Air Temp Water Temp Dewpoint Dewpoint Depression Visibility Wind Speed Wind Dir Waves Ship Positions

Norwegian Spirit

Operator: Norwegian Cruise Line

Last reported at 2016-Jun-30 01:32 UTC. Time now 2016-Jun-30 03:22 UTC.
Position N 37°00' E 024°24'.

Type: Passenger vessel. MMSI: 311746000.

Date/timePositionNaut miles runAvg speedWind from/ knotsBaromVisibWave heightAir tempDewpointWater temp
2016-Jun-30 01:32N 37°00' E 024°24'1616.8
2016-Jun-30 00:33N 36°51' E 024°07'1716.9
2016-Jun-29 23:33N 36°40' E 023°51'1717.3
2016-Jun-29 22:33N 36°31' E 023°32'1717.0
2016-Jun-29 21:33N 36°23' E 023°14'8919.5
2016-Jun-29 17:00N 36°30' E 021°24'21520.6 340 / 151011.8 5.4 25.022.226.0
2016-Jun-29 06:33N 37°31' E 017°05'3321.3
2016-Jun-29 05:00N 37°36' E 016°24'1118.3 030 / 61014.5 5.4 24.019.625.0
2016-Jun-29 04:23N 37°43' E 016°13'1619.4
2016-Jun-29 03:33N 37°47' E 015°53'1918.5
2016-Jun-29 02:33N 37°56' E 015°33'2020.1
2016-Jun-29 01:34N 38°15' E 015°38'1817.9
2016-Jun-29 00:33N 38°33' E 015°34'2120.6
2016-Jun-28 23:33N 38°52' E 015°22'2120.7
2016-Jun-28 22:33N 39°10' E 015°10'4720.8
2016-Jun-28 20:19N 39°52' E 014°43'3720.8
2016-Jun-28 18:32N 40°25' E 014°22'1920.0
2016-Jun-28 17:33N 40°44' E 014°17'5 1.5
2016-Jun-28 14:00N 40°48' E 014°12'0 0.0 240 / 131014.0 5.4 27.019.724.0
2016-Jun-28 06:00N 40°48' E 014°12'4 2.9 050 / 41015.2 5.4 23.018.523.0
2016-Jun-28 04:33N 40°44' E 014°14'1413.8
2016-Jun-28 03:33N 40°37' E 013°58'1813.8
2016-Jun-28 02:14N 40°40' E 013°34'147 6.1
2016-Jun-27 02:03N 42°02' E 010°52'5411.8
2016-Jun-26 21:30N 42°35' E 009°55'1414.5
2016-Jun-26 20:33N 42°49' E 009°58'1515.1
2016-Jun-26 19:33N 43°04' E 010°02'1515.4
2016-Jun-26 18:33N 43°19' E 010°07'5 9.4
2016-Jun-26 18:00N 43°24' E 010°06'1023.5 270 / 311012.8 5.4 24.019.624.0
2016-Jun-26 17:33N 43°32' E 010°15'3 2.6
2016-Jun-26 16:33N 43°33' E 010°18'0 0.0
2016-Jun-26 15:33N 43°33' E 010°18'0 0.0
2016-Jun-26 14:33N 43°33' E 010°18'0 0.0
2016-Jun-26 13:33N 43°33' E 010°18'0 0.0
2016-Jun-26 12:34N 43°33' E 010°18'0 0.0
2016-Jun-26 11:33N 43°33' E 010°18'0 0.0
2016-Jun-26 10:33N 43°33' E 010°18'0 0.0
2016-Jun-26 09:33N 43°33' E 010°18'0 0.0
2016-Jun-26 08:33N 43°33' E 010°18'0 0.0
2016-Jun-26 07:33N 43°33' E 010°18'0 0.0
2016-Jun-26 06:33N 43°33' E 010°18'5 9.6
2016-Jun-26 06:00N 43°30' E 010°12'512.0 070 / 71013.0 5.4 23.018.522.0
2016-Jun-26 05:33N 43°33' E 010°17'8 7.9
2016-Jun-26 04:34N 43°27' E 010°11'1413.6
2016-Jun-26 03:34N 43°19' E 009°56'1413.9
2016-Jun-26 02:33N 43°16' E 009°38'1414.1
2016-Jun-26 01:33N 43°14' E 009°19'1414.5
2016-Jun-26 00:33N 43°12' E 008°59'1515.2
2016-Jun-25 23:33N 43°09' E 008°38'1515.0
2016-Jun-25 22:33N 43°07' E 008°18'1414.5
2016-Jun-25 21:33N 43°05' E 007°58'1514.5
2016-Jun-25 20:33N 43°03' E 007°39'1515.0
2016-Jun-25 19:33N 43°01' E 007°18'1515.1
2016-Jun-25 18:33N 42°58' E 006°58'1322.2
2016-Jun-25 18:00N 42°54' E 006°42'2414.2 270 / 281010.4 5.4 23.020.121.0
2016-Jun-25 16:20N 42°57' E 006°10'1215.2
2016-Jun-25 15:32N 43°05' E 005°58'3 2.7
2016-Jun-25 14:32N 43°07' E 005°56'0 0.0
2016-Jun-25 13:33N 43°07' E 005°56'0 0.0
2016-Jun-25 12:33N 43°07' E 005°56'0 0.0
2016-Jun-25 11:33N 43°07' E 005°56'0 0.0
2016-Jun-25 10:33N 43°07' E 005°56'0 0.0
2016-Jun-25 09:33N 43°07' E 005°56'0 0.0
2016-Jun-25 08:27N 43°07' E 005°56'0 0.0
2016-Jun-25 07:33N 43°07' E 005°56'0 0.3
2016-Jun-25 06:34N 43°07' E 005°55'712.2
2016-Jun-25 06:00N 43°00' E 005°54'9814.9 270 / 91012.0 5.4 21.016.420.0
2016-Jun-24 23:24N 42°05' E 004°04'1417.0
2016-Jun-24 22:33N 41°56' E 003°48'1717.2
2016-Jun-24 21:33N 41°48' E 003°28'1717.4
2016-Jun-24 20:33N 41°39' E 003°08'1717.3
2016-Jun-24 19:33N 41°30' E 002°48'1717.2
2016-Jun-24 18:33N 41°21' E 002°28'815.1
2016-Jun-24 18:00N 41°18' E 002°18'613.3 180 / 151015.4 5.4 24.021.122.0
2016-Jun-24 17:33N 41°18' E 002°10'4 3.5
2016-Jun-24 16:32N 41°22' E 002°11'0 0.0
2016-Jun-24 15:32N 41°22' E 002°11'0 0.0
2016-Jun-24 14:32N 41°22' E 002°11'0 0.0
2016-Jun-24 13:26N 41°22' E 002°11'0 0.0
2016-Jun-24 12:32N 41°22' E 002°11'0 0.0
2016-Jun-24 11:32N 41°22' E 002°11'0 0.0
2016-Jun-24 10:32N 41°22' E 002°11'0 0.0
2016-Jun-24 09:29N 41°22' E 002°11'0 0.0
2016-Jun-24 08:32N 41°22' E 002°11'0 0.0
2016-Jun-24 07:26N 41°22' E 002°11'5 3.6
2016-Jun-24 06:00N 41°18' E 002°06'5 3.6 140 / 11018.5 5.4 21.012.822.0
2016-Jun-24 04:32N 41°22' E 002°11'0 0.0
2016-Jun-24 03:32N 41°22' E 002°11'1 1.2
2016-Jun-24 02:33N 41°21' E 002°10'7 7.2
2016-Jun-24 01:33N 41°16' E 002°17'1817.7
2016-Jun-24 00:33N 41°25' E 002°37'2120.5
2016-Jun-23 23:33N 41°35' E 003°01'2020.2
2016-Jun-23 22:33N 41°45' E 003°25'2020.2
2016-Jun-23 21:33N 41°56' E 003°47'2020.4
2016-Jun-23 20:33N 42°09' E 004°09'2020.2
2016-Jun-23 19:33N 42°20' E 004°31'4520.5
2016-Jun-23 17:20N 42°45' E 005°23'3218.0
2016-Jun-23 15:34N 43°05' E 005°57'2 2.0
2016-Jun-23 14:32N 43°07' E 005°56'0 0.0
2016-Jun-23 13:32N 43°07' E 005°56'0 0.0
2016-Jun-23 12:32N 43°07' E 005°56'0 0.0
2016-Jun-23 11:32N 43°07' E 005°56'0 0.0
2016-Jun-23 10:32N 43°07' E 005°56'0 0.0
2016-Jun-23 09:32N 43°07' E 005°56'0 0.0
2016-Jun-23 08:29N 43°07' E 005°56'0 0.0
2016-Jun-23 07:32N 43°07' E 005°56'7 3.4
2016-Jun-23 05:33N 43°01' E 006°01'1313.1
2016-Jun-23 04:34N 42°52' E 006°14'3516.4
2016-Jun-23 02:25N 42°58' E 007°01'1416.4
2016-Jun-23 01:32N 43°00' E 007°21'1616.4
2016-Jun-23 00:33N 43°03' E 007°42'1616.3
2016-Jun-22 23:33N 43°06' E 008°04'1716.6
2016-Jun-22 22:33N 43°08' E 008°26'1716.8
2016-Jun-22 21:33N 43°12' E 008°49'1717.1
2016-Jun-22 20:33N 43°15' E 009°12'1717.0
2016-Jun-22 19:33N 43°17' E 009°35'1716.7
2016-Jun-22 18:33N 43°20' E 009°58'1616.3
2016-Jun-22 17:33N 43°31' E 010°14'3 3.1
2016-Jun-22 16:29N 43°33' E 010°18'0 0.0
2016-Jun-22 15:29N 43°33' E 010°18'0 0.0
2016-Jun-22 14:32N 43°33' E 010°18'0 0.0
2016-Jun-22 13:32N 43°33' E 010°18'0 0.0
2016-Jun-22 12:32N 43°33' E 010°18'0 0.0
2016-Jun-22 11:32N 43°33' E 010°18'0 0.0
2016-Jun-22 10:32N 43°33' E 010°18'0 0.0
2016-Jun-22 09:32N 43°33' E 010°18'0 0.0
2016-Jun-22 08:32N 43°33' E 010°18'0 0.0
2016-Jun-22 07:29N 43°33' E 010°18'0 0.0
2016-Jun-22 06:32N 43°33' E 010°18'5 9.6
2016-Jun-22 06:00N 43°30' E 010°12'511.8 070 / 71021.5 5.4 20.015.322.0
2016-Jun-22 05:33N 43°33' E 010°18'7 7.0
2016-Jun-22 04:33N 43°27' E 010°12'1414.3
2016-Jun-22 03:33N 43°14' E 010°07'1414.1
2016-Jun-22 02:33N 42°60' E 010°03'1414.4
2016-Jun-22 01:33N 42°46' E 009°59'1414.4
2016-Jun-22 00:33N 42°31' E 009°56'1414.4
2016-Jun-21 23:33N 42°17' E 009°55'1312.9
2016-Jun-21 22:34N 42°07' E 010°06'1414.3
2016-Jun-21 21:33N 42°04' E 010°25'1914.3
2016-Jun-21 20:15N 42°02' E 010°50'1414.4
2016-Jun-21 19:16N 42°00' E 011°09'1612.1
2016-Jun-21 18:00N 42°00' E 011°30'9 0.7 300 / 181019.8 5.4 22.019.022.0
2016-Jun-21 06:00N 42°00' E 011°42'11511.7 330 / 31021.0 5.4 21.016.420.0
2016-Jun-20 20:07N 40°40' E 013°33'815.1
2016-Jun-20 19:33N 40°38' E 013°44'1514.8
2016-Jun-20 18:33N 40°38' E 014°03'  
Track history (hours):
 
Tides and Currents Weather Stations Pressure Air Temp Water Temp Dewpoint Dewpoint Depression Visibility Wind Speed Wind Dir Waves Ship Positions

Norwegian Spirit

Operator: Norwegian Cruise Line

Last reported at 2016-Jun-30 01:32 UTC. Time now 2016-Jun-30 03:22 UTC.
Position N 37°00' E 024°24'.

Type: Passenger vessel. MMSI: 311746000.

Date/timePositionNaut miles runAvg speedWind from/ knotsBaromVisibWave heightAir tempDewpointWater temp
2016-Jun-30 01:32N 37°00' E 024°24'1616.8
2016-Jun-30 00:33N 36°51' E 024°07'1716.9
2016-Jun-29 23:33N 36°40' E 023°51'1717.3
2016-Jun-29 22:33N 36°31' E 023°32'1717.0
2016-Jun-29 21:33N 36°23' E 023°14'8919.5
2016-Jun-29 17:00N 36°30' E 021°24'21520.6 340 / 151011.8 5.4 25.022.226.0
2016-Jun-29 06:33N 37°31' E 017°05'3321.3
2016-Jun-29 05:00N 37°36' E 016°24'1118.3 030 / 61014.5 5.4 24.019.625.0
2016-Jun-29 04:23N 37°43' E 016°13'1619.4
2016-Jun-29 03:33N 37°47' E 015°53'1918.5
2016-Jun-29 02:33N 37°56' E 015°33'2020.1
2016-Jun-29 01:34N 38°15' E 015°38'1817.9
2016-Jun-29 00:33N 38°33' E 015°34'2120.6
2016-Jun-28 23:33N 38°52' E 015°22'2120.7
2016-Jun-28 22:33N 39°10' E 015°10'4720.8
2016-Jun-28 20:19N 39°52' E 014°43'3720.8
2016-Jun-28 18:32N 40°25' E 014°22'1920.0
2016-Jun-28 17:33N 40°44' E 014°17'5 1.5
2016-Jun-28 14:00N 40°48' E 014°12'0 0.0 240 / 131014.0 5.4 27.019.724.0
2016-Jun-28 06:00N 40°48' E 014°12'4 2.9 050 / 41015.2 5.4 23.018.523.0
2016-Jun-28 04:33N 40°44' E 014°14'1413.8
2016-Jun-28 03:33N 40°37' E 013°58'1813.8
2016-Jun-28 02:14N 40°40' E 013°34'147 6.1
2016-Jun-27 02:03N 42°02' E 010°52'5411.8
2016-Jun-26 21:30N 42°35' E 009°55'1414.5
2016-Jun-26 20:33N 42°49' E 009°58'1515.1
2016-Jun-26 19:33N 43°04' E 010°02'1515.4
2016-Jun-26 18:33N 43°19' E 010°07'5 9.4
2016-Jun-26 18:00N 43°24' E 010°06'1023.5 270 / 311012.8 5.4 24.019.624.0
2016-Jun-26 17:33N 43°32' E 010°15'3 2.6
2016-Jun-26 16:33N 43°33' E 010°18'0 0.0
2016-Jun-26 15:33N 43°33' E 010°18'0 0.0
2016-Jun-26 14:33N 43°33' E 010°18'0 0.0
2016-Jun-26 13:33N 43°33' E 010°18'0 0.0
2016-Jun-26 12:34N 43°33' E 010°18'0 0.0
2016-Jun-26 11:33N 43°33' E 010°18'0 0.0
2016-Jun-26 10:33N 43°33' E 010°18'0 0.0
2016-Jun-26 09:33N 43°33' E 010°18'0 0.0
2016-Jun-26 08:33N 43°33' E 010°18'0 0.0
2016-Jun-26 07:33N 43°33' E 010°18'0 0.0
2016-Jun-26 06:33N 43°33' E 010°18'5 9.6
2016-Jun-26 06:00N 43°30' E 010°12'512.0 070 / 71013.0 5.4 23.018.522.0
2016-Jun-26 05:33N 43°33' E 010°17'8 7.9
2016-Jun-26 04:34N 43°27' E 010°11'1413.6
2016-Jun-26 03:34N 43°19' E 009°56'1413.9
2016-Jun-26 02:33N 43°16' E 009°38'1414.1
2016-Jun-26 01:33N 43°14' E 009°19'1414.5
2016-Jun-26 00:33N 43°12' E 008°59'1515.2
2016-Jun-25 23:33N 43°09' E 008°38'1515.0
2016-Jun-25 22:33N 43°07' E 008°18'1414.5
2016-Jun-25 21:33N 43°05' E 007°58'1514.5
2016-Jun-25 20:33N 43°03' E 007°39'1515.0
2016-Jun-25 19:33N 43°01' E 007°18'1515.1
2016-Jun-25 18:33N 42°58' E 006°58'1322.2
2016-Jun-25 18:00N 42°54' E 006°42'2414.2 270 / 281010.4 5.4 23.020.121.0
2016-Jun-25 16:20N 42°57' E 006°10'1215.2
2016-Jun-25 15:32N 43°05' E 005°58'3 2.7
2016-Jun-25 14:32N 43°07' E 005°56'0 0.0
2016-Jun-25 13:33N 43°07' E 005°56'0 0.0
2016-Jun-25 12:33N 43°07' E 005°56'0 0.0
2016-Jun-25 11:33N 43°07' E 005°56'0 0.0
2016-Jun-25 10:33N 43°07' E 005°56'0 0.0
2016-Jun-25 09:33N 43°07' E 005°56'0 0.0
2016-Jun-25 08:27N 43°07' E 005°56'0 0.0
2016-Jun-25 07:33N 43°07' E 005°56'0 0.3
2016-Jun-25 06:34N 43°07' E 005°55'712.2
2016-Jun-25 06:00N 43°00' E 005°54'9814.9 270 / 91012.0 5.4 21.016.420.0
2016-Jun-24 23:24N 42°05' E 004°04'1417.0
2016-Jun-24 22:33N 41°56' E 003°48'1717.2
2016-Jun-24 21:33N 41°48' E 003°28'1717.4
2016-Jun-24 20:33N 41°39' E 003°08'1717.3
2016-Jun-24 19:33N 41°30' E 002°48'1717.2
2016-Jun-24 18:33N 41°21' E 002°28'815.1
2016-Jun-24 18:00N 41°18' E 002°18'613.3 180 / 151015.4 5.4 24.021.122.0
2016-Jun-24 17:33N 41°18' E 002°10'4 3.5
2016-Jun-24 16:32N 41°22' E 002°11'0 0.0
2016-Jun-24 15:32N 41°22' E 002°11'0 0.0
2016-Jun-24 14:32N 41°22' E 002°11'0 0.0
2016-Jun-24 13:26N 41°22' E 002°11'0 0.0
2016-Jun-24 12:32N 41°22' E 002°11'0 0.0
2016-Jun-24 11:32N 41°22' E 002°11'0 0.0
2016-Jun-24 10:32N 41°22' E 002°11'0 0.0
2016-Jun-24 09:29N 41°22' E 002°11'0 0.0
2016-Jun-24 08:32N 41°22' E 002°11'0 0.0
2016-Jun-24 07:26N 41°22' E 002°11'5 3.6
2016-Jun-24 06:00N 41°18' E 002°06'5 3.6 140 / 11018.5 5.4 21.012.822.0
2016-Jun-24 04:32N 41°22' E 002°11'0 0.0
2016-Jun-24 03:32N 41°22' E 002°11'1 1.2
2016-Jun-24 02:33N 41°21' E 002°10'7 7.2
2016-Jun-24 01:33N 41°16' E 002°17'1817.7
2016-Jun-24 00:33N 41°25' E 002°37'2120.5
2016-Jun-23 23:33N 41°35' E 003°01'2020.2
2016-Jun-23 22:33N 41°45' E 003°25'2020.2
2016-Jun-23 21:33N 41°56' E 003°47'2020.4
2016-Jun-23 20:33N 42°09' E 004°09'2020.2
2016-Jun-23 19:33N 42°20' E 004°31'4520.5
2016-Jun-23 17:20N 42°45' E 005°23'3218.0
2016-Jun-23 15:34N 43°05' E 005°57'2 2.0
2016-Jun-23 14:32N 43°07' E 005°56'0 0.0
2016-Jun-23 13:32N 43°07' E 005°56'0 0.0
2016-Jun-23 12:32N 43°07' E 005°56'0 0.0
2016-Jun-23 11:32N 43°07' E 005°56'0 0.0
2016-Jun-23 10:32N 43°07' E 005°56'0 0.0
2016-Jun-23 09:32N 43°07' E 005°56'0 0.0
2016-Jun-23 08:29N 43°07' E 005°56'0 0.0
2016-Jun-23 07:32N 43°07' E 005°56'7 3.4
2016-Jun-23 05:33N 43°01' E 006°01'1313.1
2016-Jun-23 04:34N 42°52' E 006°14'3516.4
2016-Jun-23 02:25N 42°58' E 007°01'1416.4
2016-Jun-23 01:32N 43°00' E 007°21'1616.4
2016-Jun-23 00:33N 43°03' E 007°42'1616.3
2016-Jun-22 23:33N 43°06' E 008°04'1716.6
2016-Jun-22 22:33N 43°08' E 008°26'1716.8
2016-Jun-22 21:33N 43°12' E 008°49'1717.1
2016-Jun-22 20:33N 43°15' E 009°12'1717.0
2016-Jun-22 19:33N 43°17' E 009°35'1716.7
2016-Jun-22 18:33N 43°20' E 009°58'1616.3
2016-Jun-22 17:33N 43°31' E 010°14'3 3.1
2016-Jun-22 16:29N 43°33' E 010°18'0 0.0
2016-Jun-22 15:29N 43°33' E 010°18'0 0.0
2016-Jun-22 14:32N 43°33' E 010°18'0 0.0
2016-Jun-22 13:32N 43°33' E 010°18'0 0.0
2016-Jun-22 12:32N 43°33' E 010°18'0 0.0
2016-Jun-22 11:32N 43°33' E 010°18'0 0.0
2016-Jun-22 10:32N 43°33' E 010°18'0 0.0
2016-Jun-22 09:32N 43°33' E 010°18'0 0.0
2016-Jun-22 08:32N 43°33' E 010°18'0 0.0
2016-Jun-22 07:29N 43°33' E 010°18'0 0.0
2016-Jun-22 06:32N 43°33' E 010°18'5 9.6
2016-Jun-22 06:00N 43°30' E 010°12'511.8 070 / 71021.5 5.4 20.015.322.0
2016-Jun-22 05:33N 43°33' E 010°18'7 7.0
2016-Jun-22 04:33N 43°27' E 010°12'1414.3
2016-Jun-22 03:33N 43°14' E 010°07'1414.1
2016-Jun-22 02:33N 42°60' E 010°03'1414.4
2016-Jun-22 01:33N 42°46' E 009°59'1414.4
2016-Jun-22 00:33N 42°31' E 009°56'1414.4
2016-Jun-21 23:33N 42°17' E 009°55'1312.9
2016-Jun-21 22:34N 42°07' E 010°06'1414.3
2016-Jun-21 21:33N 42°04' E 010°25'1914.3
2016-Jun-21 20:15N 42°02' E 010°50'1414.4
2016-Jun-21 19:16N 42°00' E 011°09'1612.1
2016-Jun-21 18:00N 42°00' E 011°30'9 0.7 300 / 181019.8 5.4 22.019.022.0
2016-Jun-21 06:00N 42°00' E 011°42'11511.7 330 / 31021.0 5.4 21.016.420.0
2016-Jun-20 20:07N 40°40' E 013°33'815.1
2016-Jun-20 19:33N 40°38' E 013°44'1514.8
2016-Jun-20 18:33N 40°38' E 014°03'  

Dump ship's entire track history